createdAt,value
2018-10-01T00:02:15.484Z,8.60
2018-10-01T00:04:56.620Z,8.60
2018-10-01T00:07:37.820Z,8.60
2018-10-01T00:10:18.627Z,8.50
2018-10-01T00:13:00.017Z,8.50
2018-10-01T00:15:41.338Z,8.40
2018-10-01T00:18:22.244Z,8.20
2018-10-01T00:21:09.407Z,8.20
2018-10-01T00:23:50.915Z,8.10
2018-10-01T00:26:32.304Z,8.10
2018-10-01T00:29:13.169Z,7.90
2018-10-01T00:31:54.732Z,7.80
2018-10-01T00:34:35.912Z,7.70
2018-10-01T00:37:17.110Z,7.60
2018-10-01T00:39:58.144Z,7.60
2018-10-01T00:42:39.569Z,7.50
2018-10-01T00:45:20.716Z,7.40
2018-10-01T00:48:01.430Z,7.40
2018-10-01T00:50:42.688Z,7.40
2018-10-01T00:53:25.184Z,7.30
2018-10-01T00:56:06.319Z,7.30
2018-10-01T00:58:47.489Z,7.30
2018-10-01T01:01:28.342Z,7.40
2018-10-01T01:04:09.827Z,7.30
2018-10-01T01:06:50.682Z,7.30
2018-10-01T01:09:31.461Z,7.20
2018-10-01T01:12:12.222Z,7.20
2018-10-01T01:14:52.903Z,7.40
2018-10-01T01:17:33.691Z,7.50
2018-10-01T01:20:14.661Z,7.50
2018-10-01T01:22:55.789Z,7.40
2018-10-01T01:25:36.823Z,7.20
2018-10-01T01:28:18.487Z,7.10
2018-10-01T01:30:59.722Z,6.90
2018-10-01T01:33:40.523Z,6.90
2018-10-01T01:36:21.755Z,6.80
2018-10-01T01:39:04.270Z,6.80
2018-10-01T01:41:44.992Z,6.80
2018-10-01T01:44:25.991Z,6.70
2018-10-01T01:47:06.903Z,6.70
2018-10-01T01:49:47.733Z,6.60
2018-10-01T01:52:28.473Z,6.70
2018-10-01T01:55:09.277Z,6.70
2018-10-01T01:57:50.036Z,6.70
2018-10-01T02:00:31.155Z,6.70
2018-10-01T02:03:12.224Z,6.70
2018-10-01T02:05:53.408Z,6.80
2018-10-01T02:08:34.597Z,6.70
2018-10-01T02:11:15.878Z,6.70
2018-10-01T02:13:57.288Z,6.60
2018-10-01T02:16:38.448Z,6.60
2018-10-01T02:19:20.284Z,6.50
2018-10-01T02:22:01.434Z,6.50
2018-10-01T02:24:42.107Z,6.50
2018-10-01T02:27:23.172Z,6.50
2018-10-01T02:30:04.252Z,6.50
2018-10-01T02:32:45.247Z,6.50
2018-10-01T02:35:25.973Z,6.40
2018-10-01T02:38:06.866Z,6.40
2018-10-01T02:40:48.383Z,6.40
2018-10-01T02:43:29.892Z,6.40
2018-10-01T02:46:10.932Z,6.50
2018-10-01T02:48:53.296Z,6.60
2018-10-01T02:51:40.108Z,6.60
2018-10-01T02:54:26.587Z,6.60
2018-10-01T02:57:07.564Z,6.50
2018-10-01T02:59:48.679Z,6.50
2018-10-01T03:02:30.043Z,6.40
2018-10-01T03:05:10.706Z,6.40
2018-10-01T03:07:51.607Z,6.40
2018-10-01T03:10:33.001Z,6.50
2018-10-01T03:13:14.477Z,6.50
2018-10-01T03:15:55.487Z,6.40
2018-10-01T03:18:37.054Z,6.40
2018-10-01T03:21:17.870Z,6.40
2018-10-01T03:23:59.131Z,6.40
2018-10-01T03:26:39.917Z,6.50
2018-10-01T03:29:22.407Z,6.50
2018-10-01T03:32:03.763Z,6.50
2018-10-01T03:34:45.135Z,6.60
2018-10-01T03:37:26.152Z,6.70
2018-10-01T03:40:07.224Z,6.60
2018-10-01T03:42:48.563Z,6.50
2018-10-01T03:45:29.712Z,6.50
2018-10-01T03:48:10.760Z,6.40
2018-10-01T03:50:51.986Z,6.30
2018-10-01T03:53:33.158Z,6.20
2018-10-01T03:56:14.041Z,6.10
2018-10-01T03:58:55.214Z,6.10
2018-10-01T04:01:36.800Z,6.00
2018-10-01T04:04:17.923Z,5.90
2018-10-01T04:06:58.820Z,5.80
2018-10-01T04:09:39.604Z,5.70
2018-10-01T04:12:21.043Z,5.80
2018-10-01T04:15:02.385Z,6.00
2018-10-01T04:17:43.648Z,6.10
2018-10-01T04:20:24.511Z,6.20
2018-10-01T04:23:05.524Z,6.30
2018-10-01T04:25:46.538Z,6.50
2018-10-01T04:28:27.614Z,6.60
2018-10-01T04:31:08.807Z,6.70
2018-10-01T04:33:49.954Z,6.80
2018-10-01T04:36:31.432Z,6.80
2018-10-01T04:39:13.886Z,6.90
2018-10-01T04:41:54.932Z,6.90
2018-10-01T04:44:36.452Z,6.90
2018-10-01T04:47:17.783Z,6.90
2018-10-01T04:49:59.093Z,6.80
2018-10-01T04:52:40.634Z,6.70
2018-10-01T04:55:21.399Z,6.60
2018-10-01T04:58:02.452Z,6.60
2018-10-01T05:00:44.537Z,6.60
2018-10-01T05:03:25.608Z,6.70
2018-10-01T05:06:06.715Z,6.70
2018-10-01T05:08:47.761Z,6.90
2018-10-01T05:11:28.902Z,7.00
2018-10-01T05:14:09.753Z,7.10
2018-10-01T05:16:51.088Z,7.30
2018-10-01T05:19:31.895Z,7.50
2018-10-01T05:22:13.223Z,7.50
2018-10-01T05:24:54.200Z,7.50
2018-10-01T05:27:35.163Z,7.50
2018-10-01T05:30:16.447Z,7.50
2018-10-01T05:32:57.961Z,7.60
2018-10-01T05:35:39.337Z,7.70
2018-10-01T05:38:20.271Z,7.70
2018-10-01T05:41:01.905Z,7.70
2018-10-01T05:43:42.980Z,7.70
2018-10-01T05:46:24.882Z,7.80
2018-10-01T05:49:06.351Z,7.90
2018-10-01T05:51:47.300Z,7.90
2018-10-01T05:54:29.497Z,7.90
2018-10-01T05:57:10.359Z,7.80
2018-10-01T05:59:51.035Z,7.80
2018-10-01T06:02:31.844Z,7.80
2018-10-01T06:05:12.858Z,7.80
2018-10-01T06:07:53.814Z,7.90
2018-10-01T06:10:34.870Z,7.90
2018-10-01T06:13:15.949Z,7.90
2018-10-01T06:15:57.360Z,8.00
2018-10-01T06:18:38.712Z,8.00
2018-10-01T06:21:19.520Z,8.10
2018-10-01T06:24:01.824Z,8.20
2018-10-01T06:26:42.769Z,8.20
2018-10-01T06:29:23.750Z,8.30
2018-10-01T06:32:05.119Z,8.40
2018-10-01T06:34:46.683Z,8.50
2018-10-01T06:37:27.865Z,8.60
2018-10-01T06:40:08.608Z,8.70
2018-10-01T06:42:49.541Z,8.90
2018-10-01T06:45:31.093Z,9.00
2018-10-01T06:48:12.047Z,9.20
2018-10-01T06:50:53.256Z,9.40
2018-10-01T06:53:34.929Z,9.50
2018-10-01T06:56:15.671Z,9.50
2018-10-01T06:58:56.523Z,9.50
2018-10-01T07:01:37.240Z,9.60
2018-10-01T07:04:18.249Z,9.80
2018-10-01T07:06:59.375Z,9.90
2018-10-01T07:09:40.567Z,10.10
2018-10-01T07:12:21.676Z,10.20
2018-10-01T07:15:02.440Z,10.50
2018-10-01T07:17:44.253Z,10.80
2018-10-01T07:20:25.520Z,10.90
2018-10-01T07:23:06.893Z,11.20
2018-10-01T07:25:48.215Z,11.30
2018-10-01T07:28:29.286Z,11.30
2018-10-01T07:31:10.550Z,11.40
2018-10-01T07:33:51.906Z,11.50
2018-10-01T07:36:33.525Z,11.70
2018-10-01T07:39:14.490Z,11.90
2018-10-01T07:41:55.314Z,12.00
2018-10-01T07:44:36.815Z,12.20
2018-10-01T07:47:17.659Z,12.30
2018-10-01T07:49:58.894Z,12.50
2018-10-01T07:52:39.633Z,12.60
2018-10-01T07:55:20.779Z,12.70
2018-10-01T07:58:02.402Z,12.60
2018-10-01T08:00:43.277Z,12.70
2018-10-01T08:03:24.000Z,14.20
2018-10-01T08:06:04.935Z,16.90
2018-10-01T08:08:45.555Z,19.30
2018-10-01T08:11:26.165Z,21.00
2018-10-01T08:14:07.313Z,22.40
2018-10-01T08:16:48.459Z,22.20
2018-10-01T08:19:29.044Z,20.90
2018-10-01T08:22:09.671Z,19.70
2018-10-01T08:24:50.810Z,18.80
2018-10-01T08:27:31.211Z,18.00
2018-10-01T08:30:12.343Z,17.60
2018-10-01T08:32:53.199Z,17.10
2018-10-01T08:35:33.670Z,17.00
2018-10-01T08:38:14.863Z,16.70
2018-10-01T08:40:56.219Z,16.20
2018-10-01T08:43:36.894Z,16.40
2018-10-01T08:46:17.959Z,16.40
2018-10-01T08:49:10.608Z,16.50
2018-10-01T08:51:56.940Z,16.40
2018-10-01T08:54:40.161Z,16.30
2018-10-01T08:57:21.322Z,15.90
2018-10-01T09:00:01.984Z,15.60
2018-10-01T09:02:43.091Z,15.50
2018-10-01T09:05:23.653Z,15.60
2018-10-01T09:08:04.525Z,15.70
2018-10-01T09:10:45.103Z,15.90
2018-10-01T09:13:26.202Z,16.20
2018-10-01T09:16:07.422Z,16.50
2018-10-01T09:18:48.765Z,17.10
2018-10-01T09:21:30.020Z,18.50
2018-10-01T09:24:11.162Z,19.60
2018-10-01T09:26:52.238Z,19.50
2018-10-01T09:29:32.806Z,20.20
2018-10-01T09:32:13.950Z,20.30
2018-10-01T09:34:55.257Z,19.40
2018-10-01T09:37:36.191Z,19.20
2018-10-01T09:40:17.502Z,18.90
2018-10-01T09:42:59.052Z,18.10
2018-10-01T09:45:39.889Z,17.70
2018-10-01T09:48:20.999Z,17.70
2018-10-01T09:51:03.325Z,17.40
2018-10-01T09:53:44.099Z,17.00
2018-10-01T09:56:25.502Z,16.60
2018-10-01T09:59:06.383Z,16.20
2018-10-01T10:01:47.006Z,16.10
2018-10-01T10:04:27.756Z,15.90
2018-10-01T10:07:09.249Z,15.60
2018-10-01T10:09:50.146Z,15.50
2018-10-01T10:12:30.751Z,15.10
2018-10-01T10:15:11.389Z,15.10
2018-10-01T10:17:52.228Z,15.20
2018-10-01T10:20:33.294Z,15.50
2018-10-01T10:23:14.582Z,15.80
2018-10-01T10:25:55.540Z,16.00
2018-10-01T10:28:36.948Z,15.90
2018-10-01T10:31:17.733Z,15.80
2018-10-01T10:33:58.804Z,15.60
2018-10-01T10:36:39.738Z,15.70
2018-10-01T10:39:20.294Z,15.60
2018-10-01T10:42:00.965Z,15.40
2018-10-01T10:44:41.332Z,15.60
2018-10-01T10:47:23.210Z,15.80
2018-10-01T10:50:04.309Z,15.90
2018-10-01T10:52:45.377Z,16.00
2018-10-01T10:55:26.174Z,16.00
2018-10-01T10:58:06.786Z,16.10
2018-10-01T11:00:47.673Z,16.10
2018-10-01T11:03:28.751Z,16.20
2018-10-01T11:06:09.987Z,16.10
2018-10-01T11:08:50.780Z,16.10
2018-10-01T11:11:31.787Z,16.00
2018-10-01T11:14:12.502Z,16.20
2018-10-01T11:16:53.585Z,16.20
2018-10-01T11:19:34.553Z,16.10
2018-10-01T11:22:15.682Z,15.80
2018-10-01T11:24:57.737Z,15.70
2018-10-01T11:27:38.773Z,15.80
2018-10-01T11:30:20.203Z,15.70
2018-10-01T11:33:00.821Z,15.80
2018-10-01T11:35:42.078Z,15.80
2018-10-01T11:38:23.047Z,15.80
2018-10-01T11:41:03.893Z,15.70
2018-10-01T11:43:44.783Z,15.70
2018-10-01T11:46:25.268Z,15.80
2018-10-01T11:49:05.955Z,16.00
2018-10-01T11:51:46.622Z,15.70
2018-10-01T11:54:27.551Z,15.70
2018-10-01T11:57:08.743Z,15.90
2018-10-01T11:59:49.885Z,16.20
2018-10-01T12:02:30.675Z,16.30
2018-10-01T12:05:11.611Z,16.30
2018-10-01T12:07:52.320Z,16.30
2018-10-01T12:10:33.422Z,16.50
2018-10-01T12:13:14.327Z,16.60
2018-10-01T12:15:55.393Z,16.50
2018-10-01T12:18:36.001Z,16.50
2018-10-01T12:21:16.933Z,16.50
2018-10-01T12:23:57.990Z,16.50
2018-10-01T12:26:38.869Z,16.40
2018-10-01T12:29:19.398Z,16.40
2018-10-01T12:32:01.073Z,16.20
2018-10-01T12:34:41.774Z,16.40
2018-10-01T12:37:22.397Z,16.50
2018-10-01T12:40:04.555Z,16.30
2018-10-01T12:42:45.479Z,16.30
2018-10-01T12:45:26.575Z,16.50
2018-10-01T12:48:07.690Z,16.50
2018-10-01T12:50:48.711Z,16.70
2018-10-01T12:53:29.531Z,16.80
2018-10-01T12:56:10.431Z,16.70
2018-10-01T12:58:51.300Z,16.50
2018-10-01T13:01:32.923Z,16.70
2018-10-01T13:04:13.548Z,16.90
2018-10-01T13:06:54.933Z,17.00
2018-10-01T13:09:35.591Z,17.10
2018-10-01T13:12:16.279Z,16.90
2018-10-01T13:14:56.942Z,16.50
2018-10-01T13:17:37.725Z,16.40
2018-10-01T13:20:18.526Z,16.00
2018-10-01T13:22:59.574Z,15.50
2018-10-01T13:25:40.073Z,15.50
2018-10-01T13:28:21.110Z,15.50
2018-10-01T13:31:01.558Z,15.50
2018-10-01T13:33:42.399Z,15.30
2018-10-01T13:36:22.896Z,15.30
2018-10-01T13:39:05.303Z,15.00
2018-10-01T13:41:46.170Z,14.90
2018-10-01T13:44:27.114Z,14.80
2018-10-01T13:47:08.423Z,14.70
2018-10-01T13:49:49.246Z,14.70
2018-10-01T13:52:30.171Z,14.70
2018-10-01T13:55:11.247Z,14.70
2018-10-01T13:57:52.145Z,14.60
2018-10-01T14:00:32.793Z,14.40
2018-10-01T14:03:14.190Z,14.10
2018-10-01T14:05:55.134Z,14.00
2018-10-01T14:08:36.185Z,13.90
2018-10-01T14:11:17.827Z,13.90
2018-10-01T14:13:58.455Z,13.80
2018-10-01T14:16:40.022Z,13.80
2018-10-01T14:19:20.966Z,13.90
2018-10-01T14:22:02.029Z,13.90
2018-10-01T14:24:42.511Z,13.90
2018-10-01T14:27:23.521Z,14.00
2018-10-01T14:30:04.385Z,14.10
2018-10-01T14:32:44.959Z,14.10
2018-10-01T14:35:25.786Z,14.00
2018-10-01T14:38:06.660Z,14.00
2018-10-01T14:40:47.584Z,13.90
2018-10-01T14:43:28.088Z,13.80
2018-10-01T14:46:09.362Z,13.60
2018-10-01T14:48:50.172Z,13.70
2018-10-01T14:51:31.401Z,13.80
2018-10-01T14:54:12.307Z,13.90
2018-10-01T14:56:53.804Z,13.80
2018-10-01T14:59:34.844Z,13.60
2018-10-01T15:02:15.521Z,13.40
2018-10-01T15:04:57.783Z,13.30
2018-10-01T15:07:39.307Z,13.10
2018-10-01T15:10:20.194Z,12.90
2018-10-01T15:13:01.301Z,12.90
2018-10-01T15:15:42.170Z,12.80
2018-10-01T15:18:22.847Z,12.70
2018-10-01T15:21:04.015Z,12.60
2018-10-01T15:23:44.826Z,12.40
2018-10-01T15:26:26.552Z,12.00
2018-10-01T15:29:07.536Z,11.80
2018-10-01T15:31:48.462Z,11.70
2018-10-01T15:34:29.519Z,11.50
2018-10-01T15:37:10.373Z,11.50
2018-10-01T15:39:51.221Z,11.40
2018-10-01T15:42:32.015Z,11.40
2018-10-01T15:45:13.168Z,11.40
2018-10-01T15:47:54.101Z,11.30
2018-10-01T15:50:35.970Z,11.30
2018-10-01T15:53:17.061Z,11.40
2018-10-01T15:55:58.334Z,11.20
2018-10-01T15:58:39.534Z,11.20
2018-10-01T16:01:21.351Z,11.20
2018-10-01T16:04:02.758Z,11.10
2018-10-01T16:06:44.195Z,11.10
2018-10-01T16:09:25.277Z,11.20
2018-10-01T16:12:08.429Z,11.30
2018-10-01T16:14:49.604Z,11.20
2018-10-01T16:17:31.289Z,11.20
2018-10-01T16:20:12.267Z,11.20
2018-10-01T16:22:53.640Z,11.20
2018-10-01T16:25:34.831Z,11.20
2018-10-01T16:28:16.252Z,11.20
2018-10-01T16:30:57.379Z,11.20
2018-10-01T16:33:38.740Z,11.20
2018-10-01T16:36:20.400Z,11.30
2018-10-01T16:39:01.379Z,11.30
2018-10-01T16:41:42.757Z,11.20
2018-10-01T16:44:23.853Z,11.20
2018-10-01T16:47:05.721Z,11.20
2018-10-01T16:49:46.510Z,11.20
2018-10-01T16:52:27.641Z,11.10
2018-10-01T16:55:08.504Z,11.10
2018-10-01T16:57:49.439Z,11.10
2018-10-01T17:00:30.992Z,11.10
2018-10-01T17:03:11.900Z,11.10
2018-10-01T17:05:58.350Z,11.10
2018-10-01T17:08:39.386Z,11.10
2018-10-01T17:11:20.528Z,11.10
2018-10-01T17:14:02.709Z,11.00
2018-10-01T17:16:43.925Z,11.00
2018-10-01T17:19:25.333Z,11.00
2018-10-01T17:22:06.741Z,11.00
2018-10-01T17:24:47.730Z,10.90
2018-10-01T17:27:29.095Z,10.90
2018-10-01T17:30:09.960Z,10.90
2018-10-01T17:32:51.579Z,10.80
2018-10-01T17:35:32.435Z,10.90
2018-10-01T17:38:14.701Z,10.80
2018-10-01T17:40:56.044Z,10.80
2018-10-01T17:43:37.120Z,10.80
2018-10-01T17:46:19.090Z,10.80
2018-10-01T17:49:00.195Z,10.90
2018-10-01T17:51:41.451Z,10.90
2018-10-01T17:54:22.696Z,10.90
2018-10-01T17:57:04.326Z,10.80
2018-10-01T17:59:45.111Z,10.80
2018-10-01T18:02:26.559Z,10.80
2018-10-01T18:05:08.885Z,10.80
2018-10-01T18:07:50.001Z,10.80
2018-10-01T18:10:32.552Z,10.80
2018-10-01T18:13:13.933Z,10.80
2018-10-01T18:15:55.043Z,10.80
2018-10-01T18:18:36.428Z,10.80
2018-10-01T18:21:17.116Z,10.80
2018-10-01T18:23:58.159Z,10.80
2018-10-01T18:26:39.456Z,10.80
2018-10-01T18:29:20.364Z,10.80
2018-10-01T18:32:01.915Z,10.80
2018-10-01T18:34:43.331Z,10.80
2018-10-01T18:37:24.922Z,10.80
2018-10-01T18:40:10.428Z,10.80
2018-10-01T18:42:51.198Z,10.80
2018-10-01T18:45:32.963Z,10.80
2018-10-01T18:48:14.723Z,10.70
2018-10-01T18:50:56.081Z,10.70
2018-10-01T18:53:37.326Z,10.60
2018-10-01T18:56:18.602Z,10.60
2018-10-01T18:58:59.359Z,10.50
2018-10-01T19:01:40.697Z,10.40
2018-10-01T19:04:22.171Z,10.40
2018-10-01T19:07:03.629Z,10.40
2018-10-01T19:09:44.744Z,10.30
2018-10-01T19:12:26.006Z,10.30
2018-10-01T19:15:09.055Z,10.20
2018-10-01T19:17:50.146Z,10.20
2018-10-01T19:20:31.839Z,10.20
2018-10-01T19:23:13.389Z,10.30
2018-10-01T19:25:54.375Z,10.30
2018-10-01T19:28:35.430Z,10.30
2018-10-01T19:31:16.763Z,10.30
2018-10-01T19:33:58.189Z,10.40
2018-10-01T19:36:39.160Z,10.40
2018-10-01T19:39:20.196Z,10.30
2018-10-01T19:42:01.364Z,10.20
2018-10-01T19:44:43.075Z,10.20
2018-10-01T19:47:24.494Z,10.10
2018-10-01T19:50:06.396Z,10.10
2018-10-01T19:52:47.145Z,10.10
2018-10-01T19:55:28.693Z,10.10
2018-10-01T19:58:09.936Z,10.10
2018-10-01T20:00:51.252Z,10.10
2018-10-01T20:03:32.427Z,10.10
2018-10-01T20:06:13.623Z,10.10
2018-10-01T20:08:54.801Z,10.10
2018-10-01T20:11:36.010Z,10.10
2018-10-01T20:14:17.407Z,10.10
2018-10-01T20:16:58.520Z,10.00
2018-10-01T20:19:39.612Z,10.00
2018-10-01T20:22:21.488Z,10.00
2018-10-01T20:25:02.772Z,10.00
2018-10-01T20:27:44.345Z,10.00
2018-10-01T20:30:25.747Z,10.10
2018-10-01T20:33:07.446Z,10.10
2018-10-01T20:35:48.366Z,10.10
2018-10-01T20:38:29.510Z,10.10
2018-10-01T20:41:10.251Z,10.10
2018-10-01T20:43:51.403Z,10.20
2018-10-01T20:46:33.700Z,10.20
2018-10-01T20:49:14.396Z,10.10
2018-10-01T20:51:55.904Z,10.10
2018-10-01T20:54:37.340Z,10.10
2018-10-01T20:57:18.160Z,10.10
2018-10-01T20:59:59.176Z,10.20
2018-10-01T21:02:40.418Z,10.10
2018-10-01T21:05:21.738Z,10.10
2018-10-01T21:08:02.713Z,10.10
2018-10-01T21:10:43.531Z,10.10
2018-10-01T21:13:24.698Z,10.10
2018-10-01T21:16:06.039Z,9.00
2018-10-01T21:18:47.250Z,10.10
2018-10-01T21:21:28.137Z,10.10
2018-10-01T21:24:09.255Z,10.10
2018-10-01T21:26:50.583Z,10.10
2018-10-01T21:29:31.611Z,10.10
2018-10-01T21:32:12.684Z,10.10
2018-10-01T21:34:53.590Z,10.10
2018-10-01T21:37:34.365Z,10.00
2018-10-01T21:40:16.986Z,10.10
2018-10-01T21:42:57.785Z,10.00
2018-10-01T21:45:39.120Z,9.90
2018-10-01T21:48:19.864Z,10.00
2018-10-01T21:51:01.455Z,9.90
2018-10-01T21:53:42.626Z,9.90
2018-10-01T21:56:24.027Z,9.90
2018-10-01T21:59:06.009Z,9.90
2018-10-01T22:01:47.502Z,9.80
2018-10-01T22:04:28.413Z,9.70
2018-10-01T22:07:09.791Z,9.60
2018-10-01T22:09:51.018Z,9.60
2018-10-01T22:12:32.112Z,9.50
2018-10-01T22:15:12.980Z,9.40
2018-10-01T22:17:53.956Z,9.30
2018-10-01T22:20:35.424Z,9.30
2018-10-01T22:23:17.367Z,9.30
2018-10-01T22:25:58.075Z,9.20
2018-10-01T22:28:39.434Z,9.20
2018-10-01T22:31:21.061Z,9.20
2018-10-01T22:34:02.212Z,9.10
2018-10-01T22:36:43.336Z,9.20
2018-10-01T22:39:24.491Z,9.20
2018-10-01T22:42:05.305Z,9.20
2018-10-01T22:44:46.160Z,9.20
2018-10-01T22:47:27.103Z,9.20
2018-10-01T22:50:07.994Z,9.20
2018-10-01T22:52:48.830Z,9.10
2018-10-01T22:55:30.623Z,9.10
2018-10-01T22:58:11.616Z,9.10
2018-10-01T23:00:52.604Z,9.20
2018-10-01T23:03:34.510Z,9.20
2018-10-01T23:06:15.760Z,9.10
2018-10-01T23:08:56.673Z,9.20
2018-10-01T23:11:37.704Z,9.20
2018-10-01T23:14:19.241Z,9.20
2018-10-01T23:17:00.506Z,9.20
2018-10-01T23:19:42.167Z,9.00
2018-10-01T23:22:24.055Z,9.10
2018-10-01T23:25:05.765Z,9.10
2018-10-01T23:27:46.925Z,9.00
2018-10-01T23:30:27.594Z,9.00
2018-10-01T23:33:08.347Z,8.90
2018-10-01T23:35:49.985Z,8.90
2018-10-01T23:38:30.709Z,8.80
2018-10-01T23:41:12.118Z,8.80
2018-10-01T23:43:52.981Z,8.80
2018-10-01T23:46:34.155Z,8.70
2018-10-01T23:49:15.576Z,8.70
2018-10-01T23:51:57.362Z,8.70
2018-10-01T23:54:38.873Z,8.70
2018-10-01T23:57:20.071Z,8.80
